sensor_id;sensor_type;location;lat;lon;timestamp;P1;durP1;ratioP1;P2;durP2;ratioP2
13279;SDS011;6708;49.814;8.652;2024-03-23T00:51:50;7.67;;;6.77;;
13279;SDS011;6708;49.814;8.652;2024-03-23T00:54:16;7.10;;;6.50;;
13279;SDS011;6708;49.814;8.652;2024-03-23T00:56:42;6.90;;;6.27;;
13279;SDS011;6708;49.814;8.652;2024-03-23T00:59:07;6.67;;;6.17;;
13279;SDS011;6708;49.814;8.652;2024-03-23T01:01:33;7.23;;;6.67;;
13279;SDS011;6708;49.814;8.652;2024-03-23T01:03:59;7.40;;;6.83;;
13279;SDS011;6708;49.814;8.652;2024-03-23T01:06:25;7.63;;;7.03;;
13279;SDS011;6708;49.814;8.652;2024-03-23T01:08:53;8.83;;;6.63;;
13279;SDS011;6708;49.814;8.652;2024-03-23T01:11:19;7.10;;;5.73;;
13279;SDS011;6708;49.814;8.652;2024-03-23T01:13:45;7.97;;;6.17;;
13279;SDS011;6708;49.814;8.652;2024-03-23T01:16:11;5.97;;;5.47;;
13279;SDS011;6708;49.814;8.652;2024-03-23T01:18:36;6.60;;;6.10;;
13279;SDS011;6708;49.814;8.652;2024-03-23T01:21:03;6.77;;;6.27;;
13279;SDS011;6708;49.814;8.652;2024-03-23T01:23:29;6.40;;;5.90;;
13279;SDS011;6708;49.814;8.652;2024-03-23T01:25:57;6.90;;;6.33;;
13279;SDS011;6708;49.814;8.652;2024-03-23T01:28:23;7.77;;;7.17;;
13279;SDS011;6708;49.814;8.652;2024-03-23T01:30:49;8.33;;;7.53;;
13279;SDS011;6708;49.814;8.652;2024-03-23T01:33:15;10.03;;;9.00;;
13279;SDS011;6708;49.814;8.652;2024-03-23T01:35:41;10.97;;;9.97;;
13279;SDS011;6708;49.814;8.652;2024-03-23T01:38:07;11.30;;;10.37;;
13279;SDS011;6708;49.814;8.652;2024-03-23T01:40:33;11.67;;;10.63;;
13279;SDS011;6708;49.814;8.652;2024-03-23T01:43:02;11.30;;;9.97;;
13279;SDS011;6708;49.814;8.652;2024-03-23T01:45:29;10.57;;;9.67;;
13279;SDS011;6708;49.814;8.652;2024-03-23T01:47:55;10.37;;;9.47;;
13279;SDS011;6708;49.814;8.652;2024-03-23T01:50:21;10.40;;;9.20;;
13279;SDS011;6708;49.814;8.652;2024-03-23T01:52:47;9.80;;;8.80;;
13279;SDS011;6708;49.814;8.652;2024-03-23T01:55:12;9.80;;;8.90;;
13279;SDS011;6708;49.814;8.652;2024-03-23T01:57:38;9.40;;;8.50;;
13279;SDS011;6708;49.814;8.652;2024-03-23T02:00:07;10.03;;;8.27;;
13279;SDS011;6708;49.814;8.652;2024-03-23T02:02:43;9.17;;;8.37;;
13279;SDS011;6708;49.814;8.652;2024-03-23T02:05:09;9.47;;;8.53;;
13279;SDS011;6708;49.814;8.652;2024-03-23T02:07:35;9.93;;;8.73;;
13279;SDS011;6708;49.814;8.652;2024-03-23T02:10:03;10.37;;;9.07;;
13279;SDS011;6708;49.814;8.652;2024-03-23T02:12:29;11.27;;;8.83;;
13279;SDS011;6708;49.814;8.652;2024-03-23T02:14:55;8.63;;;7.83;;
13279;SDS011;6708;49.814;8.652;2024-03-23T02:17:23;8.73;;;7.87;;
13279;SDS011;6708;49.814;8.652;2024-03-23T02:19:50;13.43;;;8.50;;
13279;SDS011;6708;49.814;8.652;2024-03-23T02:22:16;11.57;;;8.73;;
13279;SDS011;6708;49.814;8.652;2024-03-23T02:24:44;8.90;;;8.10;;
13279;SDS011;6708;49.814;8.652;2024-03-23T02:27:10;9.23;;;8.43;;
13279;SDS011;6708;49.814;8.652;2024-03-23T02:29:36;10.50;;;8.73;;
13279;SDS011;6708;49.814;8.652;2024-03-23T02:32:02;9.40;;;8.50;;
13279;SDS011;6708;49.814;8.652;2024-03-23T02:34:28;9.30;;;8.53;;
13279;SDS011;6708;49.814;8.652;2024-03-23T02:36:54;10.37;;;8.33;;
13279;SDS011;6708;49.814;8.652;2024-03-23T02:39:20;10.13;;;8.80;;
13279;SDS011;6708;49.814;8.652;2024-03-23T02:41:48;8.30;;;7.50;;
13279;SDS011;6708;49.814;8.652;2024-03-23T02:44:14;10.50;;;8.07;;
13279;SDS011;6708;49.814;8.652;2024-03-23T02:46:40;8.93;;;8.03;;
13279;SDS011;6708;49.814;8.652;2024-03-23T02:49:06;11.07;;;8.83;;
13279;SDS011;6708;49.814;8.652;2024-03-23T02:51:32;8.60;;;7.90;;
13279;SDS011;6708;49.814;8.652;2024-03-23T02:53:57;8.70;;;7.90;;
13279;SDS011;6708;49.814;8.652;2024-03-23T02:56:23;8.80;;;7.93;;
13279;SDS011;6708;49.814;8.652;2024-03-23T02:58:53;9.63;;;8.73;;
13279;SDS011;6708;49.814;8.652;2024-03-23T03:01:19;9.97;;;9.07;;
13279;SDS011;6708;49.814;8.652;2024-03-23T03:03:44;8.93;;;8.03;;
13279;SDS011;6708;49.814;8.652;2024-03-23T03:06:10;9.33;;;8.53;;
13279;SDS011;6708;49.814;8.652;2024-03-23T03:08:36;8.63;;;7.80;;
13279;SDS011;6708;49.814;8.652;2024-03-23T03:11:02;9.40;;;8.17;;
13279;SDS011;6708;49.814;8.652;2024-03-23T03:13:28;9.77;;;8.00;;
13279;SDS011;6708;49.814;8.652;2024-03-23T03:15:56;12.13;;;8.03;;
13279;SDS011;6708;49.814;8.652;2024-03-23T03:18:22;9.43;;;7.50;;
13279;SDS011;6708;49.814;8.652;2024-03-23T03:20:48;9.10;;;8.20;;
13279;SDS011;6708;49.814;8.652;2024-03-23T03:23:14;9.10;;;8.20;;
13279;SDS011;6708;49.814;8.652;2024-03-23T03:25:40;9.07;;;8.17;;
13279;SDS011;6708;49.814;8.652;2024-03-23T03:28:05;8.43;;;7.63;;
13279;SDS011;6708;49.814;8.652;2024-03-23T03:30:31;8.63;;;7.83;;
13279;SDS011;6708;49.814;8.652;2024-03-23T03:32:59;8.93;;;7.70;;
13279;SDS011;6708;49.814;8.652;2024-03-23T03:35:25;9.90;;;8.37;;
13279;SDS011;6708;49.814;8.652;2024-03-23T03:37:51;12.87;;;8.50;;
13279;SDS011;6708;49.814;8.652;2024-03-23T03:40:17;9.50;;;8.60;;
13279;SDS011;6708;49.814;8.652;2024-03-23T03:42:42;9.53;;;8.60;;
13279;SDS011;6708;49.814;8.652;2024-03-23T03:45:08;9.13;;;8.20;;
13279;SDS011;6708;49.814;8.652;2024-03-23T03:47:34;9.83;;;8.80;;
13279;SDS011;6708;49.814;8.652;2024-03-23T03:50:02;9.50;;;8.57;;
13279;SDS011;6708;49.814;8.652;2024-03-23T03:52:29;14.53;;;8.40;;
13279;SDS011;6708;49.814;8.652;2024-03-23T03:54:58;10.57;;;9.07;;
13279;SDS011;6708;49.814;8.652;2024-03-23T03:57:27;11.03;;;9.27;;
13279;SDS011;6708;49.814;8.652;2024-03-23T03:59:53;9.97;;;8.97;;
13279;SDS011;6708;49.814;8.652;2024-03-23T04:02:19;13.30;;;9.43;;
13279;SDS011;6708;49.814;8.652;2024-03-23T04:04:44;13.67;;;10.10;;
13279;SDS011;6708;49.814;8.652;2024-03-23T04:07:13;11.63;;;9.70;;
13279;SDS011;6708;49.814;8.652;2024-03-23T04:09:39;12.87;;;10.00;;
13279;SDS011;6708;49.814;8.652;2024-03-23T04:12:05;13.17;;;9.70;;
13279;SDS011;6708;49.814;8.652;2024-03-23T04:14:32;14.70;;;10.57;;
13279;SDS011;6708;49.814;8.652;2024-03-23T04:16:57;12.77;;;9.97;;
13279;SDS011;6708;49.814;8.652;2024-03-23T04:19:23;12.87;;;10.37;;
13279;SDS011;6708;49.814;8.652;2024-03-23T04:21:49;11.30;;;10.10;;
13279;SDS011;6708;49.814;8.652;2024-03-23T04:24:17;12.50;;;9.67;;
13279;SDS011;6708;49.814;8.652;2024-03-23T04:26:44;12.40;;;10.27;;
13279;SDS011;6708;49.814;8.652;2024-03-23T04:29:10;13.27;;;9.60;;
13279;SDS011;6708;49.814;8.652;2024-03-23T04:31:35;13.17;;;9.57;;
13279;SDS011;6708;49.814;8.652;2024-03-23T04:34:01;11.27;;;10.10;;
13279;SDS011;6708;49.814;8.652;2024-03-23T04:36:27;13.77;;;10.70;;
13279;SDS011;6708;49.814;8.652;2024-03-23T04:38:53;13.13;;;9.30;;
13279;SDS011;6708;49.814;8.652;2024-03-23T04:41:21;12.27;;;10.90;;
13279;SDS011;6708;49.814;8.652;2024-03-23T04:43:47;13.87;;;11.43;;
13279;SDS011;6708;49.814;8.652;2024-03-23T04:46:12;10.43;;;9.33;;
13279;SDS011;6708;49.814;8.652;2024-03-23T04:48:39;9.23;;;8.43;;
13279;SDS011;6708;49.814;8.652;2024-03-23T04:51:04;8.97;;;7.90;;
13279;SDS011;6708;49.814;8.652;2024-03-23T04:53:30;9.53;;;7.87;;
13279;SDS011;6708;49.814;8.652;2024-03-23T04:55:56;7.60;;;6.80;;
13279;SDS011;6708;49.814;8.652;2024-03-23T04:58:24;6.03;;;5.53;;
13279;SDS011;6708;49.814;8.652;2024-03-23T05:00:53;5.03;;;4.63;;
13279;SDS011;6708;49.814;8.652;2024-03-23T05:03:19;5.40;;;4.73;;
13279;SDS011;6708;49.814;8.652;2024-03-23T05:05:45;5.40;;;4.10;;
13279;SDS011;6708;49.814;8.652;2024-03-23T05:08:11;4.13;;;3.83;;
13279;SDS011;6708;49.814;8.652;2024-03-23T05:10:37;3.40;;;3.13;;
13279;SDS011;6708;49.814;8.652;2024-03-23T05:13:03;2.90;;;2.60;;
13279;SDS011;6708;49.814;8.652;2024-03-23T05:15:31;2.40;;;2.30;;
13279;SDS011;6708;49.814;8.652;2024-03-23T05:17:57;2.27;;;2.17;;
13279;SDS011;6708;49.814;8.652;2024-03-23T05:20:23;2.10;;;1.90;;
13279;SDS011;6708;49.814;8.652;2024-03-23T05:22:49;1.47;;;1.37;;
13279;SDS011;6708;49.814;8.652;2024-03-23T05:25:15;1.50;;;1.47;;
13279;SDS011;6708;49.814;8.652;2024-03-23T05:27:40;1.50;;;1.40;;
13279;SDS011;6708;49.814;8.652;2024-03-23T05:30:07;2.13;;;1.20;;
13279;SDS011;6708;49.814;8.652;2024-03-23T05:32:36;1.00;;;1.00;;
13279;SDS011;6708;49.814;8.652;2024-03-23T05:35:02;1.23;;;1.23;;
13279;SDS011;6708;49.814;8.652;2024-03-23T05:37:28;1.77;;;1.67;;
13279;SDS011;6708;49.814;8.652;2024-03-23T05:39:54;1.30;;;1.30;;
13279;SDS011;6708;49.814;8.652;2024-03-23T05:42:19;1.50;;;1.40;;
13279;SDS011;6708;49.814;8.652;2024-03-23T05:44:45;1.27;;;1.27;;
13279;SDS011;6708;49.814;8.652;2024-03-23T05:47:11;1.70;;;1.60;;
13279;SDS011;6708;49.814;8.652;2024-03-23T05:49:41;1.60;;;1.60;;
13279;SDS011;6708;49.814;8.652;2024-03-23T05:52:07;1.80;;;1.70;;
13279;SDS011;6708;49.814;8.652;2024-03-23T05:54:32;1.50;;;1.50;;
13279;SDS011;6708;49.814;8.652;2024-03-23T05:56:58;1.60;;;1.50;;
13279;SDS011;6708;49.814;8.652;2024-03-23T05:59:24;1.50;;;1.50;;
13279;SDS011;6708;49.814;8.652;2024-03-23T06:01:50;1.50;;;1.50;;
13279;SDS011;6708;49.814;8.652;2024-03-23T06:04:16;2.23;;;2.13;;
13279;SDS011;6708;49.814;8.652;2024-03-23T06:06:45;2.00;;;1.90;;
13279;SDS011;6708;49.814;8.652;2024-03-23T06:09:10;1.90;;;1.80;;
13279;SDS011;6708;49.814;8.652;2024-03-23T06:11:36;2.20;;;2.10;;
13279;SDS011;6708;49.814;8.652;2024-03-23T06:14:02;2.30;;;2.20;;
13279;SDS011;6708;49.814;8.652;2024-03-23T06:16:28;2.30;;;2.20;;
13279;SDS011;6708;49.814;8.652;2024-03-23T06:18:53;2.00;;;1.90;;
13279;SDS011;6708;49.814;8.652;2024-03-23T06:21:20;1.90;;;1.80;;
13279;SDS011;6708;49.814;8.652;2024-03-23T06:23:50;2.30;;;2.20;;
13279;SDS011;6708;49.814;8.652;2024-03-23T06:26:17;1.90;;;1.80;;
13279;SDS011;6708;49.814;8.652;2024-03-23T06:28:42;2.03;;;1.93;;
13279;SDS011;6708;49.814;8.652;2024-03-23T06:31:08;2.17;;;2.07;;
13279;SDS011;6708;49.814;8.652;2024-03-23T06:33:34;1.60;;;1.30;;
13279;SDS011;6708;49.814;8.652;2024-03-23T06:36:00;1.60;;;1.57;;
13279;SDS011;6708;49.814;8.652;2024-03-23T06:38:26;1.23;;;1.23;;
13279;SDS011;6708;49.814;8.652;2024-03-23T06:40:54;1.20;;;1.20;;
13279;SDS011;6708;49.814;8.652;2024-03-23T06:43:20;1.40;;;1.30;;
13279;SDS011;6708;49.814;8.652;2024-03-23T06:45:52;1.20;;;1.20;;
13279;SDS011;6708;49.814;8.652;2024-03-23T06:48:17;1.30;;;1.30;;
13279;SDS011;6708;49.814;8.652;2024-03-23T06:50:44;1.30;;;1.30;;
13279;SDS011;6708;49.814;8.652;2024-03-23T06:53:09;1.27;;;1.27;;
13279;SDS011;6708;49.814;8.652;2024-03-23T06:55:35;0.93;;;0.93;;
13279;SDS011;6708;49.814;8.652;2024-03-23T06:58:04;0.77;;;0.77;;
13279;SDS011;6708;49.814;8.652;2024-03-23T07:00:29;1.20;;;1.20;;
13279;SDS011;6708;49.814;8.652;2024-03-23T07:02:55;1.03;;;1.03;;
13279;SDS011;6708;49.814;8.652;2024-03-23T07:05:21;0.90;;;0.90;;
13279;SDS011;6708;49.814;8.652;2024-03-23T07:07:47;0.90;;;0.90;;
13279;SDS011;6708;49.814;8.652;2024-03-23T07:10:13;1.37;;;1.27;;
13279;SDS011;6708;49.814;8.652;2024-03-23T07:12:39;0.90;;;0.90;;
13279;SDS011;6708;49.814;8.652;2024-03-23T07:15:07;1.07;;;1.07;;
13279;SDS011;6708;49.814;8.652;2024-03-23T07:17:34;1.10;;;1.10;;
13279;SDS011;6708;49.814;8.652;2024-03-23T07:19:59;1.00;;;1.00;;
13279;SDS011;6708;49.814;8.652;2024-03-23T07:22:26;0.90;;;0.90;;
13279;SDS011;6708;49.814;8.652;2024-03-23T07:24:51;1.10;;;1.10;;
13279;SDS011;6708;49.814;8.652;2024-03-23T07:27:17;0.77;;;0.77;;
13279;SDS011;6708;49.814;8.652;2024-03-23T07:29:43;0.77;;;0.77;;
13279;SDS011;6708;49.814;8.652;2024-03-23T07:32:12;1.10;;;1.10;;
13279;SDS011;6708;49.814;8.652;2024-03-23T07:34:37;1.00;;;1.00;;
13279;SDS011;6708;49.814;8.652;2024-03-23T07:37:03;1.17;;;1.10;;
13279;SDS011;6708;49.814;8.652;2024-03-23T07:39:29;1.37;;;1.37;;
13279;SDS011;6708;49.814;8.652;2024-03-23T07:41:55;1.23;;;1.20;;
13279;SDS011;6708;49.814;8.652;2024-03-23T07:44:21;1.40;;;1.40;;
13279;SDS011;6708;49.814;8.652;2024-03-23T07:46:46;1.70;;;1.60;;
13279;SDS011;6708;49.814;8.652;2024-03-23T07:49:15;1.50;;;1.40;;
13279;SDS011;6708;49.814;8.652;2024-03-23T07:51:40;1.60;;;1.53;;
13279;SDS011;6708;49.814;8.652;2024-03-23T07:54:06;1.77;;;1.50;;
13279;SDS011;6708;49.814;8.652;2024-03-23T07:56:32;1.60;;;1.50;;
13279;SDS011;6708;49.814;8.652;2024-03-23T07:58:58;1.70;;;1.60;;
13279;SDS011;6708;49.814;8.652;2024-03-23T08:01:23;1.70;;;1.60;;
13279;SDS011;6708;49.814;8.652;2024-03-23T08:03:49;3.00;;;1.87;;
13279;SDS011;6708;49.814;8.652;2024-03-23T08:06:18;1.60;;;1.50;;
13279;SDS011;6708;49.814;8.652;2024-03-23T08:08:45;1.80;;;1.80;;
13279;SDS011;6708;49.814;8.652;2024-03-23T08:11:11;1.90;;;1.80;;
13279;SDS011;6708;49.814;8.652;2024-03-23T08:13:38;1.80;;;1.70;;
13279;SDS011;6708;49.814;8.652;2024-03-23T08:16:04;4.30;;;2.43;;
13279;SDS011;6708;49.814;8.652;2024-03-23T08:18:30;2.10;;;1.73;;
13279;SDS011;6708;49.814;8.652;2024-03-23T08:20:56;2.07;;;1.77;;
13279;SDS011;6708;49.814;8.652;2024-03-23T08:23:25;2.40;;;2.07;;
13279;SDS011;6708;49.814;8.652;2024-03-23T08:25:52;2.10;;;1.90;;
13279;SDS011;6708;49.814;8.652;2024-03-23T08:28:18;2.37;;;2.27;;
13279;SDS011;6708;49.814;8.652;2024-03-23T08:30:43;3.70;;;2.80;;
13279;SDS011;6708;49.814;8.652;2024-03-23T08:33:09;3.23;;;2.93;;
13279;SDS011;6708;49.814;8.652;2024-03-23T08:35:35;3.47;;;3.10;;
13279;SDS011;6708;49.814;8.652;2024-03-23T08:38:01;3.57;;;2.77;;
13279;SDS011;6708;49.814;8.652;2024-03-23T08:40:29;2.90;;;2.60;;
13279;SDS011;6708;49.814;8.652;2024-03-23T08:42:55;2.63;;;2.30;;
13279;SDS011;6708;49.814;8.652;2024-03-23T08:45:20;2.77;;;2.40;;
13279;SDS011;6708;49.814;8.652;2024-03-23T08:47:46;2.47;;;2.27;;
13279;SDS011;6708;49.814;8.652;2024-03-23T08:50:12;3.57;;;2.43;;
13279;SDS011;6708;49.814;8.652;2024-03-23T08:52:38;4.10;;;2.77;;
13279;SDS011;6708;49.814;8.652;2024-03-23T08:55:04;2.87;;;2.63;;
13279;SDS011;6708;49.814;8.652;2024-03-23T08:57:33;4.23;;;2.77;;
13279;SDS011;6708;49.814;8.652;2024-03-23T08:59:58;4.03;;;2.60;;
13279;SDS011;6708;49.814;8.652;2024-03-23T09:02:24;7.27;;;2.83;;
13279;SDS011;6708;49.814;8.652;2024-03-23T09:04:50;6.13;;;2.60;;
13279;SDS011;6708;49.814;8.652;2024-03-23T09:07:16;4.93;;;3.00;;
13279;SDS011;6708;49.814;8.652;2024-03-23T09:09:41;4.47;;;2.70;;
13279;SDS011;6708;49.814;8.652;2024-03-23T09:12:07;5.00;;;2.43;;
13279;SDS011;6708;49.814;8.652;2024-03-23T09:14:36;6.97;;;2.70;;
13279;SDS011;6708;49.814;8.652;2024-03-23T09:17:01;2.37;;;2.17;;
13279;SDS011;6708;49.814;8.652;2024-03-23T09:19:28;4.23;;;2.37;;
13279;SDS011;6708;49.814;8.652;2024-03-23T09:21:53;4.03;;;2.20;;
13279;SDS011;6708;49.814;8.652;2024-03-23T09:24:19;3.47;;;2.43;;
13279;SDS011;6708;49.814;8.652;2024-03-23T09:26:45;3.00;;;2.20;;
13279;SDS011;6708;49.814;8.652;2024-03-23T09:29:11;3.70;;;2.90;;
13279;SDS011;6708;49.814;8.652;2024-03-23T09:31:39;3.13;;;2.27;;
13279;SDS011;6708;49.814;8.652;2024-03-23T09:34:05;3.97;;;2.47;;
13279;SDS011;6708;49.814;8.652;2024-03-23T09:36:31;4.67;;;2.40;;
13279;SDS011;6708;49.814;8.652;2024-03-23T09:38:57;3.67;;;2.37;;
13279;SDS011;6708;49.814;8.652;2024-03-23T09:41:22;4.87;;;2.83;;
13279;SDS011;6708;49.814;8.652;2024-03-23T09:43:48;7.43;;;2.83;;
13279;SDS011;6708;49.814;8.652;2024-03-23T09:46:17;6.63;;;2.70;;
13279;SDS011;6708;49.814;8.652;2024-03-23T09:48:46;2.80;;;2.57;;
13279;SDS011;6708;49.814;8.652;2024-03-23T09:51:12;4.13;;;2.33;;
13279;SDS011;6708;49.814;8.652;2024-03-23T09:53:37;7.13;;;2.37;;
13279;SDS011;6708;49.814;8.652;2024-03-23T09:56:03;3.77;;;2.43;;
13279;SDS011;6708;49.814;8.652;2024-03-23T09:58:29;2.97;;;2.20;;
13279;SDS011;6708;49.814;8.652;2024-03-23T10:00:56;4.30;;;2.50;;
13279;SDS011;6708;49.814;8.652;2024-03-23T10:03:22;6.40;;;2.53;;
13279;SDS011;6708;49.814;8.652;2024-03-23T10:05:58;2.07;;;1.97;;
13279;SDS011;6708;49.814;8.652;2024-03-23T10:08:26;4.50;;;2.17;;
13279;SDS011;6708;49.814;8.652;2024-03-23T10:10:54;4.50;;;2.00;;
13279;SDS011;6708;49.814;8.652;2024-03-23T10:13:24;5.13;;;2.33;;
13279;SDS011;6708;49.814;8.652;2024-03-23T10:15:54;3.00;;;1.90;;
13279;SDS011;6708;49.814;8.652;2024-03-23T10:18:21;2.03;;;1.90;;
13279;SDS011;6708;49.814;8.652;2024-03-23T10:20:50;3.37;;;1.63;;
13279;SDS011;6708;49.814;8.652;2024-03-23T10:23:32;3.23;;;1.90;;
13279;SDS011;6708;49.814;8.652;2024-03-23T10:26:00;3.53;;;2.00;;
13279;SDS011;6708;49.814;8.652;2024-03-23T10:28:37;5.07;;;2.30;;
13279;SDS011;6708;49.814;8.652;2024-03-23T10:31:16;3.03;;;1.70;;
13279;SDS011;6708;49.814;8.652;2024-03-23T10:33:44;3.57;;;1.80;;
13279;SDS011;6708;49.814;8.652;2024-03-23T10:36:13;2.87;;;1.60;;
13279;SDS011;6708;49.814;8.652;2024-03-23T10:38:39;2.20;;;2.00;;
13279;SDS011;6708;49.814;8.652;2024-03-23T10:41:06;3.00;;;1.87;;
13279;SDS011;6708;49.814;8.652;2024-03-23T10:43:33;3.53;;;1.90;;
13279;SDS011;6708;49.814;8.652;2024-03-23T10:45:59;3.10;;;1.90;;
13279;SDS011;6708;49.814;8.652;2024-03-23T10:48:24;2.53;;;1.80;;
13279;SDS011;6708;49.814;8.652;2024-03-23T10:50:50;3.73;;;2.13;;
13279;SDS011;6708;49.814;8.652;2024-03-23T10:53:19;2.93;;;1.60;;
13279;SDS011;6708;49.814;8.652;2024-03-23T10:55:46;10.23;;;1.90;;
13279;SDS011;6708;49.814;8.652;2024-03-23T10:58:12;5.60;;;1.57;;
13279;SDS011;6708;49.814;8.652;2024-03-23T11:00:38;3.33;;;1.40;;
13279;SDS011;6708;49.814;8.652;2024-03-23T11:05:58;2.23;;;1.10;;
13279;SDS011;6708;49.814;8.652;2024-03-23T11:08:33;1.57;;;1.00;;
13279;SDS011;6708;49.814;8.652;2024-03-23T11:13:44;2.23;;;1.30;;
13279;SDS011;6708;49.814;8.652;2024-03-23T11:16:13;2.37;;;1.10;;
13279;SDS011;6708;49.814;8.652;2024-03-23T11:18:42;3.17;;;1.03;;
13279;SDS011;6708;49.814;8.652;2024-03-23T11:21:08;2.67;;;1.10;;
13279;SDS011;6708;49.814;8.652;2024-03-23T11:23:36;1.97;;;1.13;;
13279;SDS011;6708;49.814;8.652;2024-03-23T11:26:02;2.83;;;1.60;;
13279;SDS011;6708;49.814;8.652;2024-03-23T11:28:28;1.43;;;1.33;;
13279;SDS011;6708;49.814;8.652;2024-03-23T11:30:53;4.57;;;1.77;;
13279;SDS011;6708;49.814;8.652;2024-03-23T11:33:19;3.20;;;1.70;;
13279;SDS011;6708;49.814;8.652;2024-03-23T11:35:58;3.70;;;1.83;;
13279;SDS011;6708;49.814;8.652;2024-03-23T12:01:12;1.37;;;0.73;;
13279;SDS011;6708;49.814;8.652;2024-03-23T12:03:38;0.70;;;0.50;;
13279;SDS011;6708;49.814;8.652;2024-03-23T12:06:04;1.20;;;0.90;;
13279;SDS011;6708;49.814;8.652;2024-03-23T12:08:31;2.83;;;0.77;;
13279;SDS011;6708;49.814;8.652;2024-03-23T12:11:07;1.87;;;1.40;;
13279;SDS011;6708;49.814;8.652;2024-03-23T12:13:34;0.80;;;0.60;;
13279;SDS011;6708;49.814;8.652;2024-03-23T12:16:08;1.20;;;0.90;;
13279;SDS011;6708;49.814;8.652;2024-03-23T12:18:38;0.80;;;0.80;;
13279;SDS011;6708;49.814;8.652;2024-03-23T12:21:05;1.20;;;1.00;;
13279;SDS011;6708;49.814;8.652;2024-03-23T12:23:44;0.87;;;0.80;;
13279;SDS011;6708;49.814;8.652;2024-03-23T12:26:23;1.17;;;0.60;;
13279;SDS011;6708;49.814;8.652;2024-03-23T12:28:49;2.20;;;1.30;;
13279;SDS011;6708;49.814;8.652;2024-03-23T12:31:17;0.80;;;0.70;;
13279;SDS011;6708;49.814;8.652;2024-03-23T12:33:44;0.80;;;0.80;;
13279;SDS011;6708;49.814;8.652;2024-03-23T12:36:10;2.30;;;0.70;;
13279;SDS011;6708;49.814;8.652;2024-03-23T12:38:35;1.83;;;0.80;;
13279;SDS011;6708;49.814;8.652;2024-03-23T12:41:01;1.90;;;0.80;;
13279;SDS011;6708;49.814;8.652;2024-03-23T12:43:27;1.17;;;0.90;;
13279;SDS011;6708;49.814;8.652;2024-03-23T12:45:53;2.87;;;1.07;;
13279;SDS011;6708;49.814;8.652;2024-03-23T12:48:21;1.17;;;1.07;;
13279;SDS011;6708;49.814;8.652;2024-03-23T12:50:47;2.73;;;1.40;;
13279;SDS011;6708;49.814;8.652;2024-03-23T12:53:13;1.10;;;0.90;;
13279;SDS011;6708;49.814;8.652;2024-03-23T12:55:38;2.23;;;1.13;;
13279;SDS011;6708;49.814;8.652;2024-03-23T12:58:04;0.90;;;0.90;;
13279;SDS011;6708;49.814;8.652;2024-03-23T13:00:30;2.77;;;0.90;;
13279;SDS011;6708;49.814;8.652;2024-03-23T13:02:56;1.23;;;1.07;;
13279;SDS011;6708;49.814;8.652;2024-03-23T13:05:24;3.17;;;1.10;;
13279;SDS011;6708;49.814;8.652;2024-03-23T13:07:50;1.30;;;1.20;;
13279;SDS011;6708;49.814;8.652;2024-03-23T13:10:16;1.40;;;1.00;;
13279;SDS011;6708;49.814;8.652;2024-03-23T13:12:42;1.00;;;0.80;;
13279;SDS011;6708;49.814;8.652;2024-03-23T13:15:08;1.37;;;1.20;;
13279;SDS011;6708;49.814;8.652;2024-03-23T13:17:34;1.53;;;1.43;;
13279;SDS011;6708;49.814;8.652;2024-03-23T13:20:00;4.07;;;0.90;;
13279;SDS011;6708;49.814;8.652;2024-03-23T13:22:28;1.57;;;1.47;;
13279;SDS011;6708;49.814;8.652;2024-03-23T13:24:54;2.00;;;1.30;;
13279;SDS011;6708;49.814;8.652;2024-03-23T13:27:20;1.57;;;1.30;;
13279;SDS011;6708;49.814;8.652;2024-03-23T13:29:45;1.93;;;1.37;;
13279;SDS011;6708;49.814;8.652;2024-03-23T13:32:11;1.20;;;1.20;;
13279;SDS011;6708;49.814;8.652;2024-03-23T13:34:37;1.47;;;1.30;;
13279;SDS011;6708;49.814;8.652;2024-03-23T13:37:03;1.73;;;1.20;;
13279;SDS011;6708;49.814;8.652;2024-03-23T13:39:32;1.40;;;1.17;;
13279;SDS011;6708;49.814;8.652;2024-03-23T13:41:57;4.13;;;1.30;;
13279;SDS011;6708;49.814;8.652;2024-03-23T13:44:23;1.50;;;1.20;;
13279;SDS011;6708;49.814;8.652;2024-03-23T13:46:49;1.37;;;1.27;;
13279;SDS011;6708;49.814;8.652;2024-03-23T13:49:21;1.20;;;0.87;;
13279;SDS011;6708;49.814;8.652;2024-03-23T13:51:50;1.23;;;1.00;;
13279;SDS011;6708;49.814;8.652;2024-03-23T13:54:16;0.90;;;0.87;;
13279;SDS011;6708;49.814;8.652;2024-03-23T13:56:44;2.17;;;0.83;;
13279;SDS011;6708;49.814;8.652;2024-03-23T13:59:10;1.77;;;0.63;;
13279;SDS011;6708;49.814;8.652;2024-03-23T14:01:36;0.87;;;0.87;;
13279;SDS011;6708;49.814;8.652;2024-03-23T14:04:03;0.70;;;0.70;;
13279;SDS011;6708;49.814;8.652;2024-03-23T14:06:29;1.67;;;0.73;;
13279;SDS011;6708;49.814;8.652;2024-03-23T14:08:55;1.13;;;0.60;;
13279;SDS011;6708;49.814;8.652;2024-03-23T14:11:20;1.47;;;0.90;;
13279;SDS011;6708;49.814;8.652;2024-03-23T14:13:49;0.53;;;0.53;;
13279;SDS011;6708;49.814;8.652;2024-03-23T14:16:14;0.97;;;0.70;;
13279;SDS011;6708;49.814;8.652;2024-03-23T14:18:40;0.57;;;0.50;;
13279;SDS011;6708;49.814;8.652;2024-03-23T14:21:06;0.80;;;0.40;;
13279;SDS011;6708;49.814;8.652;2024-03-23T14:23:32;1.07;;;0.53;;
13279;SDS011;6708;49.814;8.652;2024-03-23T14:25:58;1.37;;;1.03;;
13279;SDS011;6708;49.814;8.652;2024-03-23T14:28:24;1.00;;;0.60;;
13279;SDS011;6708;49.814;8.652;2024-03-23T14:30:55;0.87;;;0.60;;
13279;SDS011;6708;49.814;8.652;2024-03-23T14:33:21;2.93;;;0.83;;
13279;SDS011;6708;49.814;8.652;2024-03-23T14:35:51;0.67;;;0.67;;
13279;SDS011;6708;49.814;8.652;2024-03-23T14:38:17;0.67;;;0.40;;
13279;SDS011;6708;49.814;8.652;2024-03-23T14:40:43;1.50;;;0.73;;
13279;SDS011;6708;49.814;8.652;2024-03-23T14:43:09;0.83;;;0.70;;
13279;SDS011;6708;49.814;8.652;2024-03-23T14:45:34;1.60;;;0.73;;
13279;SDS011;6708;49.814;8.652;2024-03-23T14:48:03;0.70;;;0.70;;
13279;SDS011;6708;49.814;8.652;2024-03-23T14:50:34;1.97;;;0.90;;
13279;SDS011;6708;49.814;8.652;2024-03-23T14:53:00;2.10;;;0.60;;
13279;SDS011;6708;49.814;8.652;2024-03-23T14:55:25;1.97;;;0.40;;
13279;SDS011;6708;49.814;8.652;2024-03-23T14:57:51;3.60;;;0.30;;
13279;SDS011;6708;49.814;8.652;2024-03-23T15:00:17;1.50;;;0.40;;
13279;SDS011;6708;49.814;8.652;2024-03-23T15:02:43;0.10;;;0.10;;
13279;SDS011;6708;49.814;8.652;2024-03-23T15:05:12;0.87;;;0.27;;
13279;SDS011;6708;49.814;8.652;2024-03-23T15:07:38;0.60;;;0.60;;
13279;SDS011;6708;49.814;8.652;2024-03-23T15:10:06;1.27;;;0.80;;
13279;SDS011;6708;49.814;8.652;2024-03-23T15:12:32;0.43;;;0.30;;
13279;SDS011;6708;49.814;8.652;2024-03-23T15:14:58;1.43;;;0.43;;
13279;SDS011;6708;49.814;8.652;2024-03-23T15:17:24;0.20;;;0.20;;
13279;SDS011;6708;49.814;8.652;2024-03-23T15:19:50;0.83;;;0.40;;
13279;SDS011;6708;49.814;8.652;2024-03-23T15:22:18;0.40;;;0.40;;
13279;SDS011;6708;49.814;8.652;2024-03-23T15:24:44;1.97;;;0.40;;
13279;SDS011;6708;49.814;8.652;2024-03-23T15:27:09;3.07;;;0.53;;
13279;SDS011;6708;49.814;8.652;2024-03-23T15:29:35;0.37;;;0.37;;
13279;SDS011;6708;49.814;8.652;2024-03-23T15:32:01;0.70;;;0.40;;
13279;SDS011;6708;49.814;8.652;2024-03-23T15:34:28;1.90;;;0.70;;
13279;SDS011;6708;49.814;8.652;2024-03-23T15:36:57;1.07;;;0.63;;
13279;SDS011;6708;49.814;8.652;2024-03-23T15:39:25;0.60;;;0.60;;
13279;SDS011;6708;49.814;8.652;2024-03-23T15:41:51;1.10;;;0.50;;
13279;SDS011;6708;49.814;8.652;2024-03-23T15:44:18;0.67;;;0.30;;
13279;SDS011;6708;49.814;8.652;2024-03-23T15:46:54;1.30;;;0.40;;
13279;SDS011;6708;49.814;8.652;2024-03-23T15:49:26;0.30;;;0.20;;
13279;SDS011;6708;49.814;8.652;2024-03-23T15:55:28;0.30;;;0.30;;
13279;SDS011;6708;49.814;8.652;2024-03-23T15:58:10;1.50;;;0.60;;
13279;SDS011;6708;49.814;8.652;2024-03-23T16:01:08;0.50;;;0.40;;
13279;SDS011;6708;49.814;8.652;2024-03-23T16:03:37;3.73;;;0.90;;
13279;SDS011;6708;49.814;8.652;2024-03-23T16:09:08;0.30;;;0.30;;
13279;SDS011;6708;49.814;8.652;2024-03-23T16:11:36;0.20;;;0.20;;
13279;SDS011;6708;49.814;8.652;2024-03-23T16:14:12;2.87;;;0.50;;
13279;SDS011;6708;49.814;8.652;2024-03-23T16:17:03;0.97;;;0.97;;
13279;SDS011;6708;49.814;8.652;2024-03-23T16:20:13;0.77;;;0.40;;
13279;SDS011;6708;49.814;8.652;2024-03-23T16:23:10;0.33;;;0.33;;
13279;SDS011;6708;49.814;8.652;2024-03-23T16:25:38;1.17;;;0.27;;